createdAt,value
2023-03-03T00:00:42.529Z,43.75
2023-03-03T00:03:10.595Z,43.47
2023-03-03T00:05:38.034Z,51.13
2023-03-03T00:08:04.937Z,45.25
2023-03-03T00:10:31.688Z,45.30
2023-03-03T00:12:58.369Z,45.60
2023-03-03T00:15:25.211Z,49.53
2023-03-03T00:17:52.168Z,47.28
2023-03-03T00:20:36.156Z,41.22
2023-03-03T00:23:13.886Z,45.40
2023-03-03T00:25:41.391Z,45.55
2023-03-03T00:28:16.418Z,51.30
2023-03-03T00:30:43.075Z,47.65
2023-03-03T00:33:32.848Z,45.60
2023-03-03T00:38:51.709Z,48.90
2023-03-03T00:41:22.846Z,51.88
2023-03-03T00:43:49.848Z,52.83
2023-03-03T00:46:19.301Z,49.08
2023-03-03T00:48:46.847Z,47.10
2023-03-03T00:53:56.442Z,42.38
2023-03-03T00:56:23.167Z,51.55
2023-03-03T00:58:50.345Z,50.70
2023-03-03T01:01:17.429Z,43.85
2023-03-03T01:03:44.101Z,48.97
2023-03-03T01:06:11.532Z,46.35
2023-03-03T01:08:38.472Z,47.65
2023-03-03T01:11:09.454Z,44.05
2023-03-03T01:13:37.905Z,55.40
2023-03-03T01:16:05.508Z,51.10
2023-03-03T01:18:32.585Z,52.22
2023-03-03T01:20:59.247Z,46.88
2023-03-03T01:23:25.922Z,43.72
2023-03-03T01:25:52.560Z,47.30
2023-03-03T01:28:19.865Z,50.03
2023-03-03T01:30:46.640Z,46.72
2023-03-03T01:33:13.256Z,45.85
2023-03-03T01:35:44.819Z,50.83
2023-03-03T01:38:11.639Z,49.87
2023-03-03T01:40:38.424Z,43.58
2023-03-03T01:43:05.039Z,52.20
2023-03-03T01:45:45.397Z,45.50
2023-03-03T01:48:34.006Z,56.03
2023-03-03T01:51:02.340Z,54.70
2023-03-03T01:53:35.164Z,52.20
2023-03-03T01:56:01.772Z,55.38
2023-03-03T01:58:30.174Z,53.72
2023-03-03T02:01:00.655Z,56.22
2023-03-03T02:03:27.908Z,51.50
2023-03-03T02:05:56.805Z,51.28
2023-03-03T02:08:26.154Z,55.80
2023-03-03T02:10:52.770Z,51.15
2023-03-03T02:13:19.469Z,45.47
2023-03-03T02:15:46.383Z,56.65
2023-03-03T02:18:14.362Z,53.35
2023-03-03T02:20:47.111Z,55.42
2023-03-03T02:23:26.276Z,50.08
2023-03-03T02:26:01.238Z,46.35
2023-03-03T02:28:29.340Z,39.80
2023-03-03T02:30:57.000Z,50.22
2023-03-03T02:33:23.760Z,52.40
2023-03-03T02:35:50.559Z,46.67
2023-03-03T02:38:33.084Z,51.88
2023-03-03T02:43:55.917Z,42.85
2023-03-03T02:46:22.579Z,47.22
2023-03-03T02:48:49.243Z,47.25
2023-03-03T02:51:15.864Z,48.58
2023-03-03T02:53:42.517Z,44.95
2023-03-03T02:56:09.573Z,43.80
2023-03-03T02:58:36.868Z,47.85
2023-03-03T03:01:03.842Z,42.08
2023-03-03T03:03:30.489Z,47.80
2023-03-03T03:05:57.134Z,48.28
2023-03-03T03:08:24.040Z,50.13
2023-03-03T03:10:50.749Z,48.90
2023-03-03T03:13:17.447Z,45.95
2023-03-03T03:15:46.732Z,48.25
2023-03-03T03:18:14.096Z,46.45
2023-03-03T03:20:41.544Z,46.50
2023-03-03T03:23:08.706Z,44.35
2023-03-03T03:25:35.845Z,50.95
2023-03-03T03:28:02.483Z,48.30
2023-03-03T03:30:29.142Z,44.97
2023-03-03T03:32:55.768Z,50.33
2023-03-03T03:35:22.463Z,47.20
2023-03-03T03:37:49.392Z,54.45
2023-03-03T03:40:16.052Z,56.25
2023-03-03T03:42:42.695Z,53.20
2023-03-03T03:45:09.748Z,47.25
2023-03-03T03:47:36.383Z,47.08
2023-03-03T03:50:03.068Z,42.58
2023-03-03T03:52:29.670Z,44.10
2023-03-03T03:54:56.296Z,44.17
2023-03-03T03:57:25.023Z,46.78
2023-03-03T03:59:52.949Z,50.28
2023-03-03T04:02:19.635Z,44.53
2023-03-03T04:04:48.651Z,44.15
2023-03-03T04:07:15.249Z,43.15
2023-03-03T04:09:41.853Z,46.03
2023-03-03T04:12:08.527Z,41.88
2023-03-03T04:14:35.239Z,40.10
2023-03-03T04:17:01.882Z,46.28
2023-03-03T04:19:28.620Z,52.60
2023-03-03T04:21:55.372Z,48.15
2023-03-03T04:24:21.952Z,49.78
2023-03-03T04:26:48.590Z,46.55
2023-03-03T04:29:15.216Z,43.03
2023-03-03T04:31:41.816Z,47.15
2023-03-03T04:34:08.504Z,58.13
2023-03-03T04:36:35.119Z,54.38
2023-03-03T04:39:01.776Z,58.50
2023-03-03T04:41:28.373Z,53.28
2023-03-03T04:43:55.002Z,52.15
2023-03-03T04:46:21.583Z,43.53
2023-03-03T04:48:48.293Z,50.92
2023-03-03T04:51:16.585Z,57.28
2023-03-03T04:53:43.332Z,59.67
2023-03-03T04:56:10.121Z,51.08
2023-03-03T04:58:37.137Z,57.00
2023-03-03T05:01:03.788Z,53.40
2023-03-03T05:03:30.419Z,50.38
2023-03-03T05:05:57.273Z,53.92
2023-03-03T05:08:24.071Z,52.67
2023-03-03T05:10:52.983Z,50.88
2023-03-03T05:13:19.753Z,50.40
2023-03-03T05:15:51.183Z,50.17
2023-03-03T05:18:19.494Z,47.83
2023-03-03T05:20:46.278Z,47.42
2023-03-03T05:23:12.855Z,51.72
2023-03-03T05:25:41.905Z,54.67
2023-03-03T05:28:09.370Z,55.58
2023-03-03T05:30:36.714Z,72.45
2023-03-03T05:33:04.562Z,52.55
2023-03-03T05:35:31.534Z,61.15
2023-03-03T05:37:58.286Z,52.60
2023-03-03T05:40:25.832Z,54.45
2023-03-03T05:42:52.681Z,56.72
2023-03-03T05:45:21.109Z,57.28
2023-03-03T05:47:48.209Z,55.75
2023-03-03T05:50:14.951Z,60.03
2023-03-03T05:52:41.591Z,57.60
2023-03-03T05:55:08.623Z,60.30
2023-03-03T05:57:35.906Z,61.13
2023-03-03T06:00:04.404Z,69.85
2023-03-03T06:02:31.088Z,61.38
2023-03-03T06:04:57.694Z,61.95
2023-03-03T06:07:24.330Z,62.97
2023-03-03T06:09:50.965Z,52.85
2023-03-03T06:12:17.609Z,58.42
2023-03-03T06:14:44.262Z,60.08
2023-03-03T06:17:10.938Z,67.60
2023-03-03T06:19:37.707Z,59.13
2023-03-03T06:22:04.391Z,60.60
2023-03-03T06:24:31.562Z,61.28
2023-03-03T06:26:58.608Z,60.03
2023-03-03T06:29:25.321Z,64.60
2023-03-03T06:31:51.950Z,52.28
2023-03-03T06:34:18.741Z,59.60
2023-03-03T06:36:45.486Z,57.08
2023-03-03T06:39:12.226Z,65.55
2023-03-03T06:41:38.949Z,59.97
2023-03-03T06:44:05.622Z,57.30
2023-03-03T06:46:32.295Z,55.60
2023-03-03T06:48:58.967Z,61.30
2023-03-03T06:51:40.711Z,57.20
2023-03-03T06:54:14.900Z,56.13
2023-03-03T06:56:41.875Z,60.00
2023-03-03T06:59:13.304Z,64.45
2023-03-03T07:01:40.068Z,62.17
2023-03-03T07:04:29.182Z,57.95
2023-03-03T07:06:56.924Z,54.78
2023-03-03T07:09:25.801Z,56.63
2023-03-03T07:11:53.751Z,65.63
2023-03-03T07:14:21.056Z,63.15
2023-03-03T07:16:51.606Z,68.57
2023-03-03T07:19:20.904Z,56.80
2023-03-03T07:21:47.613Z,59.63
2023-03-03T07:24:30.334Z,67.85
2023-03-03T07:29:27.940Z,68.45
2023-03-03T07:31:55.578Z,64.00
2023-03-03T07:34:24.151Z,65.97
2023-03-03T07:36:53.700Z,60.67
2023-03-03T07:42:27.759Z,63.15
2023-03-03T07:44:59.582Z,65.80
2023-03-03T07:47:31.021Z,62.40
2023-03-03T07:50:01.045Z,61.90
2023-03-03T07:52:47.023Z,67.75
2023-03-03T07:55:34.321Z,64.55
2023-03-03T07:58:22.925Z,64.35
2023-03-03T08:01:29.460Z,64.88
2023-03-03T08:03:56.426Z,66.55
2023-03-03T08:06:44.878Z,61.58
2023-03-03T08:11:58.990Z,60.85
2023-03-03T08:14:28.522Z,65.95
2023-03-03T08:16:56.426Z,62.00
2023-03-03T08:19:23.297Z,66.45
2023-03-03T08:21:49.964Z,58.08
2023-03-03T08:24:16.809Z,62.38
2023-03-03T08:26:43.897Z,63.58
2023-03-03T08:29:11.893Z,58.67
2023-03-03T08:31:41.643Z,57.13
2023-03-03T08:34:08.784Z,55.15
2023-03-03T08:36:35.406Z,54.20
2023-03-03T08:39:02.605Z,69.38
2023-03-03T08:41:29.264Z,60.90
2023-03-03T08:43:56.006Z,68.22
2023-03-03T08:46:22.682Z,64.68
2023-03-03T08:48:49.781Z,66.15
2023-03-03T08:51:16.591Z,58.40
2023-03-03T08:53:43.284Z,59.85
2023-03-03T08:56:10.487Z,71.57
2023-03-03T08:58:37.174Z,68.15
2023-03-03T09:01:04.270Z,61.70
2023-03-03T09:03:31.123Z,58.65
2023-03-03T09:05:57.903Z,69.15
2023-03-03T09:08:24.535Z,55.08
2023-03-03T09:10:51.276Z,58.75
2023-03-03T09:13:19.709Z,54.70
2023-03-03T09:15:46.685Z,60.20
2023-03-03T09:18:37.813Z,60.40
2023-03-03T09:21:19.308Z,57.15
2023-03-03T09:23:53.226Z,58.05
2023-03-03T09:29:18.814Z,53.45
2023-03-03T09:31:54.828Z,56.42
2023-03-03T09:37:22.634Z,61.95
2023-03-03T09:39:52.027Z,57.28
2023-03-03T09:42:58.683Z,59.72
2023-03-03T09:45:50.846Z,55.45
2023-03-03T09:48:27.347Z,71.00
2023-03-03T09:51:31.321Z,62.17
2023-03-03T09:54:12.066Z,54.33
2023-03-03T09:56:42.307Z,54.75
2023-03-03T09:59:33.098Z,67.57
2023-03-03T10:02:08.868Z,65.25
2023-03-03T10:04:42.148Z,60.30
2023-03-03T10:07:28.470Z,55.28
2023-03-03T10:10:19.371Z,57.30
2023-03-03T10:13:09.010Z,63.53
2023-03-03T10:16:00.241Z,58.67
2023-03-03T10:18:49.555Z,59.15
2023-03-03T10:21:28.527Z,59.30
2023-03-03T10:24:02.726Z,58.50
2023-03-03T10:27:13.740Z,57.22
2023-03-03T10:32:29.446Z,63.42
2023-03-03T10:35:36.140Z,58.92
2023-03-03T10:38:34.571Z,61.70
2023-03-03T10:41:28.760Z,59.25
2023-03-03T10:44:26.330Z,65.45
2023-03-03T10:47:16.454Z,61.25
2023-03-03T10:49:52.057Z,64.20
2023-03-03T10:55:04.614Z,61.22
2023-03-03T10:58:02.205Z,61.90
2023-03-03T11:03:41.807Z,59.03
2023-03-03T11:06:34.354Z,52.40
2023-03-03T11:09:29.020Z,64.05
2023-03-03T11:12:15.390Z,56.08
2023-03-03T11:14:49.137Z,58.63
2023-03-03T11:17:28.490Z,65.32
2023-03-03T11:20:04.763Z,55.70
2023-03-03T11:22:54.026Z,53.22
2023-03-03T11:25:28.437Z,50.97
2023-03-03T11:28:34.960Z,55.20
2023-03-03T11:31:22.347Z,61.78
2023-03-03T11:34:28.871Z,57.88
2023-03-03T11:37:01.737Z,57.35
2023-03-03T11:39:28.454Z,62.75
2023-03-03T11:42:23.364Z,61.50
2023-03-03T11:44:52.820Z,55.28
2023-03-03T11:47:26.893Z,58.38
2023-03-03T11:50:00.982Z,58.60
2023-03-03T11:52:49.258Z,53.85
2023-03-03T11:55:36.049Z,50.90
2023-03-03T11:58:13.708Z,52.70
2023-03-03T12:00:46.432Z,61.40
2023-03-03T12:06:16.845Z,53.65
2023-03-03T12:11:53.504Z,55.67
2023-03-03T12:14:52.205Z,58.08
2023-03-03T12:20:25.937Z,58.45
2023-03-03T12:23:32.508Z,58.63
2023-03-03T12:26:20.735Z,58.03
2023-03-03T12:28:53.167Z,56.03
2023-03-03T12:31:41.976Z,60.25
2023-03-03T12:34:31.527Z,55.53
2023-03-03T12:40:13.685Z,59.40
2023-03-03T12:42:49.757Z,54.70
2023-03-03T12:48:17.771Z,50.45
2023-03-03T12:53:53.840Z,56.03
2023-03-03T12:56:41.995Z,52.70
2023-03-03T12:59:18.687Z,58.20
2023-03-03T13:02:25.230Z,58.67
2023-03-03T13:05:17.001Z,58.92
2023-03-03T13:08:06.278Z,54.42
2023-03-03T13:10:55.720Z,52.35
2023-03-03T13:14:02.210Z,58.13
2023-03-03T13:16:41.534Z,55.83
2023-03-03T13:19:11.814Z,55.22
2023-03-03T13:21:42.735Z,59.38
2023-03-03T13:24:34.268Z,55.10
2023-03-03T13:27:08.702Z,60.92
2023-03-03T13:29:45.142Z,52.83
2023-03-03T13:32:17.918Z,59.28
2023-03-03T13:35:07.131Z,58.10
2023-03-03T13:37:52.689Z,55.42
2023-03-03T13:40:23.821Z,65.47
2023-03-03T13:43:04.371Z,55.20
2023-03-03T13:45:37.816Z,51.92
2023-03-03T13:48:33.424Z,57.03
2023-03-03T13:51:21.538Z,52.22
2023-03-03T13:54:16.959Z,55.30
2023-03-03T13:57:07.916Z,54.33
2023-03-03T14:00:14.489Z,49.42
2023-03-03T14:03:04.093Z,46.30
2023-03-03T14:05:41.545Z,53.95
2023-03-03T14:08:31.381Z,47.90
2023-03-03T14:11:07.783Z,51.78
2023-03-03T14:13:59.470Z,61.63
2023-03-03T14:17:02.540Z,55.35
2023-03-03T14:19:33.078Z,48.25
2023-03-03T14:22:24.118Z,48.10
2023-03-03T14:25:05.374Z,52.22
2023-03-03T14:27:37.595Z,49.95
2023-03-03T14:30:28.380Z,42.47
2023-03-03T14:35:51.746Z,52.92
2023-03-03T14:38:20.517Z,54.42
2023-03-03T14:40:48.064Z,47.92
2023-03-03T14:43:38.560Z,44.10
2023-03-03T14:49:30.463Z,47.63
2023-03-03T14:52:03.363Z,46.85
2023-03-03T14:54:35.331Z,48.55
2023-03-03T14:57:22.302Z,46.15
2023-03-03T15:00:27.455Z,44.95
2023-03-03T15:03:16.726Z,50.50
2023-03-03T15:05:49.851Z,48.25
2023-03-03T15:08:16.489Z,49.78
2023-03-03T15:10:44.421Z,50.03
2023-03-03T15:13:29.188Z,46.38
2023-03-03T15:16:02.923Z,51.13
2023-03-03T15:18:32.494Z,45.63
2023-03-03T15:21:06.973Z,49.05
2023-03-03T15:24:11.101Z,46.95
2023-03-03T15:26:45.567Z,46.97
2023-03-03T15:29:36.630Z,50.83
2023-03-03T15:35:37.455Z,52.28
2023-03-03T15:38:28.754Z,50.15
2023-03-03T15:41:05.092Z,47.15
2023-03-03T15:43:40.302Z,48.33
2023-03-03T15:46:31.733Z,44.65
2023-03-03T15:52:03.659Z,46.15
2023-03-03T15:54:59.183Z,44.90
2023-03-03T15:58:05.019Z,54.05
2023-03-03T16:01:03.451Z,42.03
2023-03-03T16:03:36.355Z,44.75
2023-03-03T16:06:10.461Z,45.65
2023-03-03T16:11:38.909Z,56.45
2023-03-03T16:14:34.806Z,48.28
2023-03-03T16:17:25.894Z,46.53
2023-03-03T16:20:32.528Z,57.92
2023-03-03T16:23:39.058Z,47.63
2023-03-03T16:26:27.236Z,50.20
2023-03-03T16:29:20.876Z,47.72
2023-03-03T16:32:04.622Z,56.30
2023-03-03T16:34:55.595Z,51.40
2023-03-03T16:37:27.782Z,49.28
2023-03-03T16:40:22.106Z,49.10
2023-03-03T16:42:51.442Z,50.22
2023-03-03T16:51:15.053Z,57.67
2023-03-03T16:54:03.802Z,42.95
2023-03-03T16:57:00.421Z,62.80
2023-03-03T17:00:04.472Z,57.35
2023-03-03T17:02:49.455Z,59.83
2023-03-03T17:05:39.858Z,48.10
2023-03-03T17:08:46.401Z,57.35
2023-03-03T17:11:44.267Z,53.20
2023-03-03T17:14:38.147Z,56.20
2023-03-03T17:17:34.259Z,50.58
2023-03-03T17:20:13.093Z,49.72
2023-03-03T17:23:09.829Z,52.55
2023-03-03T17:25:42.731Z,52.60
2023-03-03T17:28:49.493Z,53.63
2023-03-03T17:31:30.466Z,51.58
2023-03-03T17:34:21.753Z,56.08
2023-03-03T17:37:04.260Z,59.47
2023-03-03T17:40:10.820Z,58.65
2023-03-03T17:43:03.761Z,54.63
2023-03-03T17:45:31.338Z,57.70
2023-03-03T17:48:20.552Z,56.28
2023-03-03T17:51:12.895Z,62.90
2023-03-03T17:54:04.388Z,61.70
2023-03-03T17:56:33.337Z,58.13
2023-03-03T17:59:23.930Z,64.05
2023-03-03T18:05:18.864Z,56.33
2023-03-03T18:08:07.909Z,64.18
2023-03-03T18:10:59.177Z,64.55
2023-03-03T18:13:38.984Z,56.78
2023-03-03T18:16:28.005Z,57.17
2023-03-03T18:19:21.601Z,62.75
2023-03-03T18:27:32.767Z,58.95
2023-03-03T18:30:21.528Z,65.78
2023-03-03T18:33:03.292Z,64.05
2023-03-03T18:35:38.237Z,55.25
2023-03-03T18:41:04.247Z,73.20
2023-03-03T18:43:52.030Z,54.50
2023-03-03T18:49:03.696Z,57.40
2023-03-03T18:51:43.752Z,60.08
2023-03-03T18:54:20.886Z,61.17
2023-03-03T18:56:50.562Z,64.43
2023-03-03T19:08:32.346Z,63.08
2023-03-03T19:11:01.327Z,70.15
2023-03-03T19:13:38.940Z,59.65
2023-03-03T19:16:07.428Z,61.42
2023-03-03T19:18:44.892Z,60.33
2023-03-03T19:21:34.239Z,63.45
2023-03-03T19:24:37.091Z,67.95
2023-03-03T19:27:27.240Z,66.65
2023-03-03T19:30:00.915Z,74.95
2023-03-03T19:32:57.239Z,57.33
2023-03-03T19:35:34.518Z,62.28
2023-03-03T19:38:19.302Z,66.30
2023-03-03T19:44:15.299Z,59.22
2023-03-03T19:47:02.102Z,54.63
2023-03-03T19:52:25.749Z,60.92
2023-03-03T19:55:32.477Z,65.75
2023-03-03T19:58:10.023Z,71.40
2023-03-03T20:00:48.542Z,61.38
2023-03-03T20:03:53.790Z,70.72
2023-03-03T20:06:44.148Z,66.85
2023-03-03T20:09:40.150Z,62.00
2023-03-03T20:12:30.048Z,55.03
2023-03-03T20:17:50.963Z,64.22
2023-03-03T20:20:56.337Z,62.30
2023-03-03T20:23:52.986Z,60.95
2023-03-03T20:26:27.213Z,61.78
2023-03-03T20:29:18.255Z,57.03
2023-03-03T20:35:08.234Z,58.83
2023-03-03T20:37:51.977Z,63.35
2023-03-03T20:40:49.600Z,61.90
2023-03-03T20:43:56.649Z,57.63
2023-03-03T20:46:45.086Z,70.20
2023-03-03T20:49:35.877Z,68.28
2023-03-03T20:52:11.300Z,66.15
2023-03-03T20:55:04.422Z,69.75
2023-03-03T20:57:36.996Z,72.45
2023-03-03T21:02:41.117Z,71.45
2023-03-03T21:05:14.853Z,58.70
2023-03-03T21:08:03.224Z,69.28
2023-03-03T21:10:35.549Z,65.22
2023-03-03T21:13:29.336Z,61.95
2023-03-03T21:15:59.560Z,63.63
2023-03-03T21:18:26.512Z,60.58
2023-03-03T21:20:53.562Z,63.55
2023-03-03T21:23:21.033Z,64.60
2023-03-03T21:25:52.201Z,63.72
2023-03-03T21:28:34.435Z,70.53
2023-03-03T21:31:16.936Z,62.92
2023-03-03T21:33:54.842Z,69.75
2023-03-03T21:39:02.177Z,66.45
2023-03-03T21:41:29.079Z,57.47
2023-03-03T21:43:55.746Z,70.40
2023-03-03T21:46:23.992Z,69.88
2023-03-03T21:48:51.323Z,66.53
2023-03-03T21:51:20.283Z,68.78
2023-03-03T21:53:47.560Z,74.90
2023-03-03T21:56:14.383Z,72.75
2023-03-03T21:58:41.738Z,61.47
2023-03-03T22:01:08.576Z,69.18
2023-03-03T22:03:35.490Z,67.07
2023-03-03T22:06:02.753Z,62.95
2023-03-03T22:08:29.436Z,77.47
2023-03-03T22:10:56.462Z,70.85
2023-03-03T22:13:24.166Z,64.60
2023-03-03T22:15:51.195Z,69.88
2023-03-03T22:18:18.929Z,70.82
2023-03-03T22:20:46.643Z,65.22
2023-03-03T22:23:14.256Z,68.95
2023-03-03T22:25:40.843Z,65.28
2023-03-03T22:28:07.595Z,71.72
2023-03-03T22:30:34.237Z,70.72
2023-03-03T22:33:00.879Z,66.13
2023-03-03T22:35:27.793Z,69.32
2023-03-03T22:37:54.533Z,61.03
2023-03-03T22:40:21.180Z,71.53
2023-03-03T22:42:47.933Z,66.05
2023-03-03T22:45:14.810Z,73.10
2023-03-03T22:47:41.422Z,70.80
2023-03-03T22:50:08.917Z,67.75
2023-03-03T22:52:35.639Z,72.95
2023-03-03T22:55:04.034Z,80.80
2023-03-03T22:57:31.144Z,74.43
2023-03-03T22:59:57.960Z,74.07
2023-03-03T23:02:24.667Z,67.28
2023-03-03T23:04:58.034Z,78.07
2023-03-03T23:07:26.277Z,74.90
2023-03-03T23:09:52.872Z,74.32
2023-03-03T23:12:19.533Z,67.25
2023-03-03T23:14:46.458Z,64.57
2023-03-03T23:17:13.068Z,76.13
2023-03-03T23:19:42.746Z,75.97
2023-03-03T23:22:09.412Z,66.57
2023-03-03T23:24:36.418Z,70.70
2023-03-03T23:27:03.168Z,70.72
2023-03-03T23:29:30.674Z,78.18
2023-03-03T23:31:57.334Z,65.45
2023-03-03T23:34:23.984Z,65.65
2023-03-03T23:36:50.620Z,68.30
2023-03-03T23:39:17.582Z,67.93
2023-03-03T23:41:45.285Z,69.75
2023-03-03T23:44:12.492Z,65.47
2023-03-03T23:46:39.924Z,69.95
2023-03-03T23:49:07.078Z,70.22
2023-03-03T23:51:34.246Z,70.93
2023-03-03T23:54:00.828Z,61.58
2023-03-03T23:56:27.519Z,74.53
2023-03-03T23:58:54.108Z,70.38
